sensor_id;sensor_type;location;lat;lon;timestamp;pressure;altitude;pressure_sealevel;temperature;humidity
48668;BME280;34453;52.198;5.004;2022-09-21T00:01:14;102867.06;;;10.90;100.00
48668;BME280;34453;52.198;5.004;2022-09-21T00:03:41;102862.16;;;10.69;100.00
48668;BME280;34453;52.198;5.004;2022-09-21T00:06:18;102861.13;;;10.43;100.00
48668;BME280;34453;52.198;5.004;2022-09-21T00:08:45;102869.72;;;10.45;100.00
48668;BME280;34453;52.198;5.004;2022-09-21T00:11:12;102867.59;;;10.52;100.00
48668;BME280;34453;52.198;5.004;2022-09-21T00:13:38;102865.72;;;10.54;100.00
48668;BME280;34453;52.198;5.004;2022-09-21T00:16:05;102865.72;;;10.54;100.00
48668;BME280;34453;52.198;5.004;2022-09-21T00:18:31;102862.16;;;10.55;100.00
48668;BME280;34453;52.198;5.004;2022-09-21T00:20:57;102863.00;;;10.55;100.00
48668;BME280;34453;52.198;5.004;2022-09-21T00:23:22;102864.88;;;10.53;100.00
48668;BME280;34453;52.198;5.004;2022-09-21T00:25:48;102864.31;;;10.63;100.00
48668;BME280;34453;52.198;5.004;2022-09-21T00:28:13;102863.13;;;10.68;100.00
48668;BME280;34453;52.198;5.004;2022-09-21T00:30:39;102859.94;;;10.77;100.00
48668;BME280;34453;52.198;5.004;2022-09-21T00:33:04;102865.19;;;10.77;100.00
48668;BME280;34453;52.198;5.004;2022-09-21T00:35:31;102869.09;;;10.85;100.00
48668;BME280;34453;52.198;5.004;2022-09-21T00:38:00;102866.31;;;10.88;100.00
48668;BME280;34453;52.198;5.004;2022-09-21T00:40:25;102861.81;;;10.90;100.00
48668;BME280;34453;52.198;5.004;2022-09-21T00:42:50;102858.34;;;10.89;100.00
48668;BME280;34453;52.198;5.004;2022-09-21T00:45:16;102861.34;;;10.97;100.00
48668;BME280;34453;52.198;5.004;2022-09-21T00:47:50;102858.81;;;10.96;100.00
48668;BME280;34453;52.198;5.004;2022-09-21T00:50:21;102860.50;;;10.97;100.00
48668;BME280;34453;52.198;5.004;2022-09-21T00:52:50;102860.88;;;10.91;100.00
48668;BME280;34453;52.198;5.004;2022-09-21T00:55:29;102858.25;;;10.91;100.00
48668;BME280;34453;52.198;5.004;2022-09-21T00:57:59;102857.22;;;10.93;100.00
48668;BME280;34453;52.198;5.004;2022-09-21T01:00:27;102861.81;;;10.90;100.00
48668;BME280;34453;52.198;5.004;2022-09-21T01:02:53;102863.88;;;10.85;100.00
48668;BME280;34453;52.198;5.004;2022-09-21T01:05:26;102859.78;;;10.81;100.00
48668;BME280;34453;52.198;5.004;2022-09-21T01:07:52;102856.28;;;10.80;100.00
48668;BME280;34453;52.198;5.004;2022-09-21T01:10:19;102862.28;;;10.82;100.00
48668;BME280;34453;52.198;5.004;2022-09-21T01:29:26;102860.56;;;10.22;100.00
48668;BME280;34453;52.198;5.004;2022-09-21T01:32:28;102860.94;;;10.16;100.00
48668;BME280;34453;52.198;5.004;2022-09-21T01:37:36;102863.84;;;9.95;100.00
48668;BME280;34453;52.198;5.004;2022-09-21T01:40:09;102869.50;;;10.04;100.00
48668;BME280;34453;52.198;5.004;2022-09-21T01:42:38;102866.53;;;10.10;100.00
48668;BME280;34453;52.198;5.004;2022-09-21T01:45:06;102864.75;;;10.10;100.00
48668;BME280;34453;52.198;5.004;2022-09-21T01:47:34;102859.06;;;10.18;100.00
48668;BME280;34453;52.198;5.004;2022-09-21T01:50:05;102863.56;;;10.16;100.00
48668;BME280;34453;52.198;5.004;2022-09-21T01:52:38;102859.50;;;10.10;100.00
48668;BME280;34453;52.198;5.004;2022-09-21T01:55:11;102856.22;;;10.07;100.00
48668;BME280;34453;52.198;5.004;2022-09-21T01:57:44;102869.72;;;10.15;100.00
48668;BME280;34453;52.198;5.004;2022-09-21T02:00:14;102864.88;;;10.23;100.00
48668;BME280;34453;52.198;5.004;2022-09-21T02:02:44;102867.19;;;10.29;100.00
48668;BME280;34453;52.198;5.004;2022-09-21T02:05:12;102859.22;;;10.31;100.00
48668;BME280;34453;52.198;5.004;2022-09-21T02:07:40;102858.91;;;10.21;100.00
48668;BME280;34453;52.198;5.004;2022-09-21T02:10:09;102858.97;;;10.20;100.00
48668;BME280;34453;52.198;5.004;2022-09-21T02:12:38;102868.59;;;10.19;100.00
48668;BME280;34453;52.198;5.004;2022-09-21T02:15:04;102870.47;;;10.17;100.00
48668;BME280;34453;52.198;5.004;2022-09-21T02:17:46;102866.25;;;10.14;100.00
48668;BME280;34453;52.198;5.004;2022-09-21T02:20:19;102866.53;;;10.10;100.00
48668;BME280;34453;52.198;5.004;2022-09-21T02:27:55;102858.63;;;9.95;100.00
48668;BME280;34453;52.198;5.004;2022-09-21T02:30:26;102859.63;;;9.93;100.00
48668;BME280;34453;52.198;5.004;2022-09-21T02:35:23;102869.25;;;9.92;100.00
48668;BME280;34453;52.198;5.004;2022-09-21T02:38:00;102863.84;;;9.95;100.00
48668;BME280;34453;52.198;5.004;2022-09-21T02:40:41;102862.00;;;9.98;100.00
48668;BME280;34453;52.198;5.004;2022-09-21T02:43:18;102858.72;;;9.94;100.00
48668;BME280;34453;52.198;5.004;2022-09-21T02:45:53;102858.47;;;9.99;100.00
48668;BME280;34453;52.198;5.004;2022-09-21T02:48:30;102858.53;;;9.97;100.00
48668;BME280;34453;52.198;5.004;2022-09-21T02:50:58;102844.13;;;9.90;100.00
48668;BME280;34453;52.198;5.004;2022-09-21T02:53:32;102856.94;;;9.94;100.00
48668;BME280;34453;52.198;5.004;2022-09-21T02:56:01;102854.06;;;9.99;100.00
48668;BME280;34453;52.198;5.004;2022-09-21T02:58:33;102853.38;;;9.95;100.00
48668;BME280;34453;52.198;5.004;2022-09-21T03:01:00;102851.88;;;9.91;100.00
48668;BME280;34453;52.198;5.004;2022-09-21T03:03:26;102850.19;;;9.90;100.00
48668;BME280;34453;52.198;5.004;2022-09-21T03:05:53;102850.19;;;9.90;100.00
48668;BME280;34453;52.198;5.004;2022-09-21T03:08:19;102846.91;;;9.87;100.00
48668;BME280;34453;52.198;5.004;2022-09-21T03:10:45;102849.53;;;9.87;100.00
48668;BME280;34453;52.198;5.004;2022-09-21T03:13:11;102857.47;;;9.85;100.00
48668;BME280;34453;52.198;5.004;2022-09-21T03:15:38;102853.09;;;9.86;100.00
48668;BME280;34453;52.198;5.004;2022-09-21T03:18:05;102857.28;;;9.88;100.00
48668;BME280;34453;52.198;5.004;2022-09-21T03:20:34;102860.75;;;9.89;100.00
48668;BME280;34453;52.198;5.004;2022-09-21T03:23:00;102851.78;;;9.93;100.00
48668;BME280;34453;52.198;5.004;2022-09-21T03:25:26;102855.25;;;9.93;100.00
48668;BME280;34453;52.198;5.004;2022-09-21T03:27:52;102865.88;;;9.90;100.00
48668;BME280;34453;52.198;5.004;2022-09-21T03:30:22;102854.44;;;9.77;100.00
48668;BME280;34453;52.198;5.004;2022-09-21T03:32:52;102863.38;;;9.73;100.00
48668;BME280;34453;52.198;5.004;2022-09-21T03:35:21;102857.56;;;9.68;100.00
48668;BME280;34453;52.198;5.004;2022-09-21T03:37:47;102861.72;;;9.72;100.00
48668;BME280;34453;52.198;5.004;2022-09-21T03:40:14;102862.81;;;9.68;100.00
48668;BME280;34453;52.198;5.004;2022-09-21T03:42:40;102860.72;;;9.59;100.00
48668;BME280;34453;52.198;5.004;2022-09-21T03:45:07;102862.38;;;9.60;100.00
48668;BME280;34453;52.198;5.004;2022-09-21T03:47:34;102863.72;;;9.67;100.00
48668;BME280;34453;52.198;5.004;2022-09-21T03:49:59;102860.84;;;9.71;100.00
48668;BME280;34453;52.198;5.004;2022-09-21T03:52:25;102859.47;;;9.80;100.00
48668;BME280;34453;52.198;5.004;2022-09-21T03:54:51;102867.19;;;9.83;100.00
48668;BME280;34453;52.198;5.004;2022-09-21T03:57:16;102868.09;;;9.82;100.00
48668;BME280;34453;52.198;5.004;2022-09-21T03:59:42;102857.81;;;9.79;100.00
48668;BME280;34453;52.198;5.004;2022-09-21T04:02:07;102866.22;;;9.84;100.00
48668;BME280;34453;52.198;5.004;2022-09-21T04:04:33;102864.63;;;9.82;100.00
48668;BME280;34453;52.198;5.004;2022-09-21T04:06:59;102875.78;;;9.69;100.00
48668;BME280;34453;52.198;5.004;2022-09-21T04:09:25;102881.09;;;9.68;100.00
48668;BME280;34453;52.198;5.004;2022-09-21T04:11:50;102875.38;;;9.61;100.00
48668;BME280;34453;52.198;5.004;2022-09-21T04:14:16;102863.06;;;9.47;100.00
48668;BME280;34453;52.198;5.004;2022-09-21T04:16:42;102865.84;;;9.44;100.00
48668;BME280;34453;52.198;5.004;2022-09-21T04:19:08;102874.88;;;9.39;100.00
48668;BME280;34453;52.198;5.004;2022-09-21T04:21:33;102875.13;;;9.34;100.00
48668;BME280;34453;52.198;5.004;2022-09-21T04:23:59;102871.81;;;9.15;100.00
48668;BME280;34453;52.198;5.004;2022-09-21T04:26:30;102877.53;;;9.05;100.00
48668;BME280;34453;52.198;5.004;2022-09-21T04:28:57;102878.53;;;9.03;100.00
48668;BME280;34453;52.198;5.004;2022-09-21T04:31:23;102872.97;;;9.09;100.00
48668;BME280;34453;52.198;5.004;2022-09-21T04:33:53;102871.81;;;9.15;100.00
48668;BME280;34453;52.198;5.004;2022-09-21T04:36:22;102869.78;;;9.20;100.00
48668;BME280;34453;52.198;5.004;2022-09-21T04:38:49;102875.19;;;9.17;100.00
48668;BME280;34453;52.198;5.004;2022-09-21T04:41:15;102875.50;;;9.10;100.00
48668;BME280;34453;52.198;5.004;2022-09-21T04:43:41;102873.38;;;9.01;100.00
48668;BME280;34453;52.198;5.004;2022-09-21T04:46:09;102878.69;;;9.00;100.00
48668;BME280;34453;52.198;5.004;2022-09-21T04:48:35;102870.84;;;9.00;100.00
48668;BME280;34453;52.198;5.004;2022-09-21T04:51:02;102877.22;;;9.11;100.00
48668;BME280;34453;52.198;5.004;2022-09-21T04:53:28;102867.91;;;9.06;100.00
48668;BME280;34453;52.198;5.004;2022-09-21T04:55:54;102882.25;;;9.15;100.00
48668;BME280;34453;52.198;5.004;2022-09-21T04:58:22;102881.00;;;9.22;100.00
48668;BME280;34453;52.198;5.004;2022-09-21T05:00:49;102881.00;;;9.22;100.00
48668;BME280;34453;52.198;5.004;2022-09-21T05:03:16;102885.44;;;9.20;100.00
48668;BME280;34453;52.198;5.004;2022-09-21T05:05:48;102879.19;;;9.06;100.00
48668;BME280;34453;52.198;5.004;2022-09-21T05:08:14;102870.44;;;8.91;100.00
48668;BME280;34453;52.198;5.004;2022-09-21T05:10:40;102873.09;;;8.90;100.00
48668;BME280;34453;52.198;5.004;2022-09-21T05:13:05;102890.97;;;8.98;100.00
48668;BME280;34453;52.198;5.004;2022-09-21T05:15:30;102881.22;;;9.01;100.00
48668;BME280;34453;52.198;5.004;2022-09-21T05:17:56;102884.28;;;9.09;100.00
48668;BME280;34453;52.198;5.004;2022-09-21T05:20:21;102882.06;;;9.18;100.00
48668;BME280;34453;52.198;5.004;2022-09-21T05:22:47;102894.88;;;9.22;100.00
48668;BME280;34453;52.198;5.004;2022-09-21T05:25:12;102891.34;;;9.07;100.00
48668;BME280;34453;52.198;5.004;2022-09-21T05:27:37;102886.75;;;8.95;100.00
48668;BME280;34453;52.198;5.004;2022-09-21T05:30:04;102893.69;;;8.96;100.00
48668;BME280;34453;52.198;5.004;2022-09-21T05:32:55;102889.81;;;9.03;100.00
48668;BME280;34453;52.198;5.004;2022-09-21T05:35:53;102898.25;;;9.24;100.00
48668;BME280;34453;52.198;5.004;2022-09-21T05:38:23;102896.59;;;9.39;100.00
48668;BME280;34453;52.198;5.004;2022-09-21T05:40:49;102899.66;;;9.47;100.00
48668;BME280;34453;52.198;5.004;2022-09-21T05:43:15;102890.81;;;9.50;100.00
48668;BME280;34453;52.198;5.004;2022-09-21T05:45:45;102896.59;;;9.39;100.00
48668;BME280;34453;52.198;5.004;2022-09-21T05:48:15;102903.44;;;9.42;100.00
48668;BME280;34453;52.198;5.004;2022-09-21T05:56:09;102905.38;;;9.54;100.00
48668;BME280;34453;52.198;5.004;2022-09-21T06:03:51;102900.16;;;9.54;100.00
48668;BME280;34453;52.198;5.004;2022-09-21T06:06:18;102905.53;;;9.67;100.00
48668;BME280;34453;52.198;5.004;2022-09-21T06:08:44;102907.66;;;9.76;100.00
48668;BME280;34453;52.198;5.004;2022-09-21T06:11:11;102911.44;;;9.86;100.00
48668;BME280;34453;52.198;5.004;2022-09-21T06:13:37;102907.47;;;9.95;100.00
48668;BME280;34453;52.198;5.004;2022-09-21T06:16:05;102910.00;;;9.96;100.00
48668;BME280;34453;52.198;5.004;2022-09-21T06:18:37;102913.75;;;10.07;100.00
48668;BME280;34453;52.198;5.004;2022-09-21T06:21:04;102913.25;;;10.16;100.00
48668;BME280;34453;52.198;5.004;2022-09-21T06:23:31;102921.34;;;10.27;100.00
48668;BME280;34453;52.198;5.004;2022-09-21T06:25:56;102913.75;;;10.39;100.00
48668;BME280;34453;52.198;5.004;2022-09-21T06:28:22;102907.22;;;10.46;100.00
48668;BME280;34453;52.198;5.004;2022-09-21T06:30:52;102916.38;;;10.53;100.00
48668;BME280;34453;52.198;5.004;2022-09-21T06:33:19;102915.66;;;10.65;100.00
48668;BME280;34453;52.198;5.004;2022-09-21T06:35:55;102908.00;;;10.76;100.00
48668;BME280;34453;52.198;5.004;2022-09-21T06:38:21;102911.00;;;10.85;100.00
48668;BME280;34453;52.198;5.004;2022-09-21T06:40:49;102917.56;;;10.92;100.00
48668;BME280;34453;52.198;5.004;2022-09-21T06:43:15;102916.41;;;10.96;100.00
48668;BME280;34453;52.198;5.004;2022-09-21T06:45:40;102911.03;;;10.99;100.00
48668;BME280;34453;52.198;5.004;2022-09-21T06:48:06;102911.78;;;11.01;100.00
48668;BME280;34453;52.198;5.004;2022-09-21T06:50:32;102913.34;;;11.04;100.00
48668;BME280;34453;52.198;5.004;2022-09-21T06:53:02;102908.50;;;11.12;100.00
48668;BME280;34453;52.198;5.004;2022-09-21T06:55:28;102913.25;;;11.19;100.00
48668;BME280;34453;52.198;5.004;2022-09-21T06:58:02;102906.69;;;11.27;100.00
48668;BME280;34453;52.198;5.004;2022-09-21T07:00:28;102917.63;;;11.33;100.00
48668;BME280;34453;52.198;5.004;2022-09-21T07:02:54;102913.59;;;11.42;100.00
48668;BME280;34453;52.198;5.004;2022-09-21T07:05:19;102913.97;;;11.50;100.00
48668;BME280;34453;52.198;5.004;2022-09-21T07:07:44;102918.47;;;11.48;100.00
48668;BME280;34453;52.198;5.004;2022-09-21T07:10:10;102911.44;;;11.49;100.00
48668;BME280;34453;52.198;5.004;2022-09-21T07:12:36;102916.75;;;11.61;100.00
48668;BME280;34453;52.198;5.004;2022-09-21T07:15:03;102919.78;;;11.82;100.00
48668;BME280;34453;52.198;5.004;2022-09-21T07:17:36;102925.03;;;11.97;100.00
48668;BME280;34453;52.198;5.004;2022-09-21T07:20:04;102923.75;;;12.02;100.00
48668;BME280;34453;52.198;5.004;2022-09-21T07:22:31;102927.69;;;12.10;100.00
48668;BME280;34453;52.198;5.004;2022-09-21T07:24:57;102926.25;;;12.18;100.00
48668;BME280;34453;52.198;5.004;2022-09-21T07:27:24;102923.84;;;12.28;100.00
48668;BME280;34453;52.198;5.004;2022-09-21T07:29:50;102931.13;;;12.37;100.00
48668;BME280;34453;52.198;5.004;2022-09-21T07:32:16;102926.50;;;12.41;100.00
48668;BME280;34453;52.198;5.004;2022-09-21T07:34:42;102927.56;;;12.51;100.00
48668;BME280;34453;52.198;5.004;2022-09-21T07:37:08;102925.47;;;12.69;100.00
48668;BME280;34453;52.198;5.004;2022-09-21T07:39:34;102916.69;;;12.83;100.00
48668;BME280;34453;52.198;5.004;2022-09-21T07:42:00;102915.63;;;12.98;100.00
48668;BME280;34453;52.198;5.004;2022-09-21T07:44:26;102923.19;;;13.03;100.00
48668;BME280;34453;52.198;5.004;2022-09-21T07:46:51;102920.84;;;13.11;100.00
48668;BME280;34453;52.198;5.004;2022-09-21T07:49:17;102920.19;;;13.20;100.00
48668;BME280;34453;52.198;5.004;2022-09-21T07:51:43;102922.00;;;13.33;100.00
48668;BME280;34453;52.198;5.004;2022-09-21T07:54:09;102897.81;;;13.27;100.00
48668;BME280;34453;52.198;5.004;2022-09-21T07:56:39;102908.50;;;13.50;100.00
48668;BME280;34453;52.198;5.004;2022-09-21T07:59:04;102893.66;;;13.49;100.00
48668;BME280;34453;52.198;5.004;2022-09-21T08:01:34;102881.91;;;13.42;100.00
48668;BME280;34453;52.198;5.004;2022-09-21T08:04:09;102882.28;;;13.61;100.00
48668;BME280;34453;52.198;5.004;2022-09-21T08:06:36;102896.59;;;13.81;100.00
48668;BME280;34453;52.198;5.004;2022-09-21T08:09:04;102880.25;;;13.89;100.00
48668;BME280;34453;52.198;5.004;2022-09-21T08:11:31;102891.34;;;14.05;100.00
48668;BME280;34453;52.198;5.004;2022-09-21T08:14:00;102883.94;;;14.22;100.00
48668;BME280;34453;52.198;5.004;2022-09-21T08:16:26;102872.00;;;14.29;100.00
48668;BME280;34453;52.198;5.004;2022-09-21T08:18:53;102886.63;;;14.44;100.00
48668;BME280;34453;52.198;5.004;2022-09-21T08:21:19;102889.75;;;14.49;100.00
48668;BME280;34453;52.198;5.004;2022-09-21T08:23:45;102892.59;;;14.70;100.00
48668;BME280;34453;52.198;5.004;2022-09-21T08:26:13;102864.13;;;14.40;100.00
48668;BME280;34453;52.198;5.004;2022-09-21T08:28:44;102881.94;;;14.61;100.00
48668;BME280;34453;52.198;5.004;2022-09-21T08:31:13;102880.25;;;14.71;100.00
48668;BME280;34453;52.198;5.004;2022-09-21T08:33:38;102885.75;;;14.68;100.00
48668;BME280;34453;52.198;5.004;2022-09-21T08:36:11;102887.44;;;14.80;100.00
48668;BME280;34453;52.198;5.004;2022-09-21T08:38:38;102887.44;;;14.80;100.00
48668;BME280;34453;52.198;5.004;2022-09-21T08:41:23;102894.75;;;14.99;100.00
48668;BME280;34453;52.198;5.004;2022-09-21T08:44:19;102890.78;;;15.16;100.00
48668;BME280;34453;52.198;5.004;2022-09-21T08:46:51;102888.84;;;15.18;100.00
48668;BME280;34453;52.198;5.004;2022-09-21T08:49:24;102889.78;;;15.40;100.00
48668;BME280;34453;52.198;5.004;2022-09-21T08:51:58;102877.06;;;15.45;100.00
48668;BME280;34453;52.198;5.004;2022-09-21T08:56:58;102873.28;;;15.26;100.00
48668;BME280;34453;52.198;5.004;2022-09-21T08:59:24;102889.50;;;15.65;100.00
48668;BME280;34453;52.198;5.004;2022-09-21T09:02:04;102877.22;;;15.87;100.00
48668;BME280;34453;52.198;5.004;2022-09-21T09:08:35;102875.34;;;16.62;100.00
48668;BME280;34453;52.198;5.004;2022-09-21T09:14:24;102880.06;;;15.95;100.00
48668;BME280;34453;52.198;5.004;2022-09-21T09:22:05;102880.25;;;16.66;100.00
48668;BME280;34453;52.198;5.004;2022-09-21T09:24:38;102881.63;;;16.91;100.00
48668;BME280;34453;52.198;5.004;2022-09-21T09:27:22;102883.41;;;17.22;100.00
48668;BME280;34453;52.198;5.004;2022-09-21T09:30:00;102885.16;;;17.61;100.00
48668;BME280;34453;52.198;5.004;2022-09-21T09:35:25;102887.50;;;17.65;100.00
48668;BME280;34453;52.198;5.004;2022-09-21T09:37:55;102878.28;;;17.39;100.00
48668;BME280;34453;52.198;5.004;2022-09-21T09:46:25;102867.22;;;18.61;100.00
48668;BME280;34453;52.198;5.004;2022-09-21T09:51:33;102886.72;;;18.03;100.00
48668;BME280;34453;52.198;5.004;2022-09-21T09:54:01;102875.97;;;17.85;100.00
48668;BME280;34453;52.198;5.004;2022-09-21T09:56:30;102867.59;;;18.09;100.00
48668;BME280;34453;52.198;5.004;2022-09-21T09:58:57;102864.88;;;18.38;100.00
48668;BME280;34453;52.198;5.004;2022-09-21T10:01:44;102867.75;;;18.08;100.00
48668;BME280;34453;52.198;5.004;2022-09-21T10:04:15;102866.03;;;18.26;100.00
48668;BME280;34453;52.198;5.004;2022-09-21T10:06:42;102870.53;;;18.06;100.00
48668;BME280;34453;52.198;5.004;2022-09-21T10:09:28;102869.97;;;18.02;100.00
48668;BME280;34453;52.198;5.004;2022-09-21T10:12:18;102860.94;;;17.86;100.00
48668;BME280;34453;52.198;5.004;2022-09-21T10:14:52;102869.44;;;17.99;100.00
48668;BME280;34453;52.198;5.004;2022-09-21T10:17:19;102872.06;;;18.09;100.00
48668;BME280;34453;52.198;5.004;2022-09-21T10:19:45;102865.31;;;18.34;100.00
48668;BME280;34453;52.198;5.004;2022-09-21T10:22:18;102864.25;;;18.64;100.00
48668;BME280;34453;52.198;5.004;2022-09-21T10:24:52;102867.56;;;18.76;100.00
48668;BME280;34453;52.198;5.004;2022-09-21T10:27:26;102867.34;;;18.59;100.00
48668;BME280;34453;52.198;5.004;2022-09-21T10:29:53;102867.88;;;18.26;100.00
48668;BME280;34453;52.198;5.004;2022-09-21T10:32:28;102863.44;;;18.54;100.00
48668;BME280;34453;52.198;5.004;2022-09-21T10:37:35;102862.59;;;19.46;100.00
48668;BME280;34453;52.198;5.004;2022-09-21T10:40:03;102851.97;;;19.64;100.00
48668;BME280;34453;52.198;5.004;2022-09-21T10:42:41;102859.25;;;19.62;100.00
48668;BME280;34453;52.198;5.004;2022-09-21T10:45:33;102853.44;;;20.20;100.00
48668;BME280;34453;52.198;5.004;2022-09-21T10:48:08;102851.16;;;20.25;100.00
48668;BME280;34453;52.198;5.004;2022-09-21T10:50:39;102862.06;;;19.78;100.00
48668;BME280;34453;52.198;5.004;2022-09-21T10:56:14;102855.81;;;19.16;100.00
48668;BME280;34453;52.198;5.004;2022-09-21T10:59:19;102857.31;;;19.18;100.00
48668;BME280;34453;52.198;5.004;2022-09-21T11:01:49;102858.06;;;18.83;100.00
48668;BME280;34453;52.198;5.004;2022-09-21T11:04:31;102851.50;;;19.33;100.00
48668;BME280;34453;52.198;5.004;2022-09-21T11:10:02;102847.22;;;20.12;100.00
48668;BME280;34453;52.198;5.004;2022-09-21T11:12:34;102832.88;;;19.78;100.00
48668;BME280;34453;52.198;5.004;2022-09-21T11:20:45;102842.06;;;19.84;100.00
48668;BME280;34453;52.198;5.004;2022-09-21T11:29:08;102833.31;;;19.92;100.00
48668;BME280;34453;52.198;5.004;2022-09-21T11:31:49;102844.06;;;19.36;100.00
48668;BME280;34453;52.198;5.004;2022-09-21T11:39:48;102839.59;;;18.16;100.00
48668;BME280;34453;52.198;5.004;2022-09-21T11:45:47;102838.47;;;17.70;100.00
48668;BME280;34453;52.198;5.004;2022-09-21T11:51:26;102826.06;;;18.57;100.00
48668;BME280;34453;52.198;5.004;2022-09-21T11:54:40;102821.72;;;18.93;100.00
48668;BME280;34453;52.198;5.004;2022-09-21T11:57:25;102819.91;;;19.57;100.00
48668;BME280;34453;52.198;5.004;2022-09-21T12:00:20;102823.03;;;20.23;100.00
48668;BME280;34453;52.198;5.004;2022-09-21T12:05:53;102819.00;;;20.37;100.00
48668;BME280;34453;52.198;5.004;2022-09-21T12:08:40;102807.88;;;20.41;100.00
48668;BME280;34453;52.198;5.004;2022-09-21T12:19:45;102803.50;;;21.17;100.00
48668;BME280;34453;52.198;5.004;2022-09-21T12:22:17;102808.75;;;21.43;100.00
48668;BME280;34453;52.198;5.004;2022-09-21T12:24:51;102801.53;;;21.36;100.00
48668;BME280;34453;52.198;5.004;2022-09-21T12:27:28;102808.72;;;21.92;100.00
48668;BME280;34453;52.198;5.004;2022-09-21T12:30:03;102802.31;;;22.34;100.00
48668;BME280;34453;52.198;5.004;2022-09-21T12:32:53;102812.06;;;21.94;100.00
48668;BME280;34453;52.198;5.004;2022-09-21T12:35:33;102804.56;;;21.73;100.00
48668;BME280;34453;52.198;5.004;2022-09-21T12:38:20;102807.06;;;21.83;100.00
48668;BME280;34453;52.198;5.004;2022-09-21T12:40:52;102810.84;;;22.13;100.00
48668;BME280;34453;52.198;5.004;2022-09-21T12:46:16;102795.66;;;22.14;100.00
48668;BME280;34453;52.198;5.004;2022-09-21T12:48:43;102786.75;;;21.82;100.00
48668;BME280;34453;52.198;5.004;2022-09-21T12:51:29;102794.00;;;22.13;100.00
48668;BME280;34453;52.198;5.004;2022-09-21T12:54:07;102787.66;;;22.14;100.00
48668;BME280;34453;52.198;5.004;2022-09-21T12:56:43;102788.28;;;22.41;100.00
48668;BME280;34453;52.198;5.004;2022-09-21T13:10:18;102776.53;;;22.58;100.00
48668;BME280;34453;52.198;5.004;2022-09-21T13:12:50;102773.75;;;22.83;100.00
48668;BME280;34453;52.198;5.004;2022-09-21T13:15:26;102763.75;;;22.76;100.00
48668;BME280;34453;52.198;5.004;2022-09-21T13:18:06;102778.78;;;22.77;100.00
48668;BME280;34453;52.198;5.004;2022-09-21T13:20:41;102782.81;;;22.34;100.00
48668;BME280;34453;52.198;5.004;2022-09-21T13:23:20;102764.38;;;22.87;100.00
48668;BME280;34453;52.198;5.004;2022-09-21T13:25:59;102769.31;;;22.35;100.00
48668;BME280;34453;52.198;5.004;2022-09-21T13:36:35;102765.91;;;22.50;100.00
48668;BME280;34453;52.198;5.004;2022-09-21T13:41:29;102762.41;;;21.11;100.00
48668;BME280;34453;52.198;5.004;2022-09-21T13:46:51;102771.66;;;20.75;100.00
48668;BME280;34453;52.198;5.004;2022-09-21T13:57:23;102759.75;;;21.03;100.00
48668;BME280;34453;52.198;5.004;2022-09-21T14:05:44;102751.31;;;21.57;100.00
48668;BME280;34453;52.198;5.004;2022-09-21T14:11:02;102733.66;;;22.91;100.00
48668;BME280;34453;52.198;5.004;2022-09-21T14:13:38;102734.16;;;22.94;100.00
48668;BME280;34453;52.198;5.004;2022-09-21T14:19:00;102743.31;;;21.49;100.00
48668;BME280;34453;52.198;5.004;2022-09-21T14:21:26;102738.31;;;21.13;100.00
48668;BME280;34453;52.198;5.004;2022-09-21T14:24:08;102745.13;;;21.24;100.00
48668;BME280;34453;52.198;5.004;2022-09-21T14:32:00;102738.13;;;21.72;100.00
48668;BME280;34453;52.198;5.004;2022-09-21T14:34:31;102733.97;;;21.69;100.00
48668;BME280;34453;52.198;5.004;2022-09-21T14:37:03;102730.16;;;21.56;100.00
48668;BME280;34453;52.198;5.004;2022-09-21T14:39:34;102732.44;;;21.91;100.00
48668;BME280;34453;52.198;5.004;2022-09-21T14:42:10;102734.41;;;21.98;100.00
48668;BME280;34453;52.198;5.004;2022-09-21T14:44:40;102732.81;;;21.31;100.00
48668;BME280;34453;52.198;5.004;2022-09-21T14:50:24;102715.38;;;21.61;100.00
48668;BME280;34453;52.198;5.004;2022-09-21T14:53:14;102718.84;;;21.37;100.00
48668;BME280;34453;52.198;5.004;2022-09-21T15:06:40;102696.75;;;22.01;100.00
48668;BME280;34453;52.198;5.004;2022-09-21T15:10:33;102697.69;;;22.16;100.00
48668;BME280;34453;52.198;5.004;2022-09-21T15:18:31;102690.47;;;23.86;100.00
48668;BME280;34453;52.198;5.004;2022-09-21T15:21:03;102693.34;;;24.36;99.79
48668;BME280;34453;52.198;5.004;2022-09-21T15:23:39;102687.47;;;25.05;100.00
48668;BME280;34453;52.198;5.004;2022-09-21T15:26:13;102690.75;;;25.50;100.00
48668;BME280;34453;52.198;5.004;2022-09-21T15:28:45;102680.63;;;25.87;100.00
48668;BME280;34453;52.198;5.004;2022-09-21T15:31:14;102683.41;;;25.65;94.43
48668;BME280;34453;52.198;5.004;2022-09-21T15:33:41;102691.66;;;26.05;80.15
48668;BME280;34453;52.198;5.004;2022-09-21T15:36:10;102667.53;;;26.05;76.46
48668;BME280;34453;52.198;5.004;2022-09-21T15:38:36;102681.72;;;25.30;79.97
48668;BME280;34453;52.198;5.004;2022-09-21T15:41:04;102672.81;;;25.01;88.61
48668;BME280;34453;52.198;5.004;2022-09-21T15:43:31;102679.22;;;25.21;88.37
48668;BME280;34453;52.198;5.004;2022-09-21T15:46:03;102686.16;;;25.44;89.10
48668;BME280;34453;52.198;5.004;2022-09-21T15:48:34;102685.25;;;25.65;94.04
48668;BME280;34453;52.198;5.004;2022-09-21T15:51:30;102678.81;;;25.25;88.45
48668;BME280;34453;52.198;5.004;2022-09-21T15:54:02;102683.78;;;25.28;91.13
48668;BME280;34453;52.198;5.004;2022-09-21T15:56:30;102681.56;;;25.66;88.16
48668;BME280;34453;52.198;5.004;2022-09-21T15:59:01;102674.81;;;26.18;92.36
48668;BME280;34453;52.198;5.004;2022-09-21T16:01:44;102681.22;;;26.17;99.26